Madison III — WDG6757 — position and weather

sailwx.info

Track history (hours):
 
Tides and Currents Weather Stations Pressure Air Temp Water Temp Dewpoint Dewpoint Depression Visibility Wind Speed Wind Dir Waves Ship Positions

Madison III

Owner: Ocean Clam Inc, Oceanview, NJ. More information available from US FCC via Universal Licensing System and Coast Guard Vessel Documentation Center.

Last reported at 2017-Nov-02 07:24 UTC. Time now 2017-Nov-20 07:57 UTC.
Position N 39°31' W 073°43'.
Warning: this ship's position is 18 days out of date.

Length 22 m.

Type: Fishing. MMSI: 367560350.

Date/timePositionNaut miles runAvg speedWind from/ knotsBaromVisibWave heightAir tempDewpointWater temp
2017-Nov-02 07:24N 39°31' W 073°43'1 3.1
2017-Nov-02 06:58N 39°30' W 073°45'4 3.0
2017-Nov-02 05:31N 39°30' W 073°50'0 2.8
2017-Nov-02 05:27N 39°30' W 073°50'1 2.5
2017-Nov-02 05:00N 39°31' W 073°51'2 3.2
2017-Nov-02 04:30N 39°32' W 073°50'  
2017-Oct-23 12:42N 39°22' W 074°25'0 0.0
2017-Oct-23 12:30N 39°22' W 074°25'1 2.3
2017-Oct-23 11:58N 39°22' W 074°24'7 5.8
2017-Oct-23 10:46N 39°23' W 074°15'2 7.8
2017-Oct-23 10:30N 39°24' W 074°13'  
Track history (hours):
 
Tides and Currents Weather Stations Pressure Air Temp Water Temp Dewpoint Dewpoint Depression Visibility Wind Speed Wind Dir Waves Ship Positions

Madison III

Owner: Ocean Clam Inc, Oceanview, NJ. More information available from US FCC via Universal Licensing System and Coast Guard Vessel Documentation Center.

Last reported at 2017-Nov-02 07:24 UTC. Time now 2017-Nov-20 07:57 UTC.
Position N 39°31' W 073°43'.
Warning: this ship's position is 18 days out of date.

Length 22 m.

Type: Fishing. MMSI: 367560350.

Date/timePositionNaut miles runAvg speedWind from/ knotsBaromVisibWave heightAir tempDewpointWater temp
2017-Nov-02 07:24N 39°31' W 073°43'1 3.1
2017-Nov-02 06:58N 39°30' W 073°45'4 3.0
2017-Nov-02 05:31N 39°30' W 073°50'0 2.8
2017-Nov-02 05:27N 39°30' W 073°50'1 2.5
2017-Nov-02 05:00N 39°31' W 073°51'2 3.2
2017-Nov-02 04:30N 39°32' W 073°50'  
2017-Oct-23 12:42N 39°22' W 074°25'0 0.0
2017-Oct-23 12:30N 39°22' W 074°25'1 2.3
2017-Oct-23 11:58N 39°22' W 074°24'7 5.8
2017-Oct-23 10:46N 39°23' W 074°15'2 7.8
2017-Oct-23 10:30N 39°24' W 074°13'  

Dump ship's entire track history